Time;durP1;ratioP1;P1;durP2;ratioP2;P2;SDS_P1;SDS_P2;PMS_P1;PMS_P2;Temp;Humidity;BMP_temperature;BMP_pressure;BME280_temperature;BME280_humidity;BME280_pressure;Samples;Min_cycle;Max_cycle;Signal;HPM_P1;HPM_P2
2021/01/17 09:31:31;;;;;;;;;11.25;6.00;;;;;;;;1550069;27;957535;-90
2021/01/17 09:32:19;;;;;;;;;7.00;6.80;;;;;;;;1567788;27;85114;-88
2021/01/17 09:33:09;;;;;;;;;7.60;6.00;;;;;;;;1559918;28;85946;-90
2021/01/17 09:33:57;;;;;;;;;5.60;3.20;;;;;;;;1556388;28;86429;-88
2021/01/17 09:34:43;;;;;;;;;7.40;4.80;;;;;;;;1556856;28;84644;-89
2021/01/17 09:35:28;;;;;;;;;6.60;4.60;;;;;;;;1556289;28;85126;-89
2021/01/17 09:36:29;;;;;;;;;3.50;3.50;;;;;;;;1555719;28;86020;-89
2021/01/17 09:37:18;;;;;;;;;7.00;5.00;;;;;;;;1563930;27;83450;-88
2021/01/17 09:38:04;;;;;;;;;5.00;4.80;;;;;;;;1559591;28;84869;-88
2021/01/17 09:38:49;;;;;;;;;3.80;3.60;;;;;;;;1555403;28;84540;-89
2021/01/17 09:39:40;;;;;;;;;5.50;5.50;;;;;;;;1555012;28;86480;-89
2021/01/17 09:40:25;;;;;;;;;5.00;4.80;;;;;;;;1562393;27;84851;-88
2021/01/17 09:41:11;;;;;;;;;3.00;3.00;;;;;;;;1559142;28;85043;-88
2021/01/17 09:41:56;;;;;;;;;6.00;4.25;;;;;;;;1555170;28;84531;-89
2021/01/17 09:42:42;;;;;;;;;5.00;3.00;;;;;;;;1555244;28;83502;-87
2021/01/17 09:43:28;;;;;;;;;7.40;4.00;;;;;;;;1555360;28;83645;-87
2021/01/17 09:44:13;;;;;;;;;7.00;5.00;;;;;;;;1555432;28;86406;-85
2021/01/17 09:45:00;;;;;;;;;8.25;5.25;;;;;;;;1561411;27;83747;-85
2021/01/17 09:45:51;;;;;;;;;6.00;5.00;;;;;;;;1565530;27;86307;-88
2021/01/17 09:46:37;;;;;;;;;8.40;6.00;;;;;;;;1559783;28;84955;-91
2021/01/17 09:47:24;;;;;;;;;8.50;6.00;;;;;;;;1560073;28;83882;-88
2021/01/17 09:48:16;;;;;;;;;8.00;6.60;;;;;;;;1555741;28;85261;-87
2021/01/17 09:49:04;;;;;;;;;4.60;4.00;;;;;;;;1556507;28;86300;-90
2021/01/17 09:49:49;;;;;;;;;5.40;4.80;;;;;;;;1554882;28;83892;-86
2021/01/17 09:50:36;;;;;;;;;5.50;5.00;;;;;;;;1556666;28;84738;-89
2021/01/17 09:51:24;;;;;;;;;4.20;4.20;;;;;;;;1560473;28;84705;-91
2021/01/17 09:52:12;;;;;;;;;6.50;4.50;;;;;;;;1558831;28;84669;-90
2021/01/17 09:53:03;;;;;;;;;5.40;5.40;;;;;;;;1549841;28;85719;-88
2021/01/17 09:53:48;;;;;;;;;6.50;5.25;;;;;;;;1550259;28;83531;-89
2021/01/17 09:54:36;;;;;;;;;5.75;5.25;;;;;;;;1547274;28;85385;-89
2021/01/17 09:55:21;;;;;;;;;5.25;4.00;;;;;;;;1543301;28;86468;-88
2021/01/17 09:56:06;;;;;;;;;3.75;3.50;;;;;;;;1550103;28;85891;-89
2021/01/17 09:56:54;;;;;;;;;4.75;2.75;;;;;;;;1549674;28;86443;-89
2021/01/17 09:58:08;;;;;;;;;4.50;3.00;;;;;;;;1554716;28;85396;-91
2021/01/17 09:59:02;;;;;;;;;4.00;4.00;;;;;;;;1535295;28;85251;-93
2021/01/17 10:00:14;;;;;;;;;3.25;2.50;;;;;;;;1548640;28;87133;-89
2021/01/17 10:01:08;;;;;;;;;3.50;2.00;;;;;;;;1540047;28;84712;-93
2021/01/17 10:04:31;;;;;;;;;4.00;3.00;;;;;;;;1528878;28;85366;-91
2021/01/17 10:05:36;;;;;;;;;6.80;4.00;;;;;;;;1522783;28;85664;-90
2021/01/17 10:06:34;;;;;;;;;;;;;;;;;;;;;
2021/01/17 10:07:23;;;;;;;;;7.40;6.00;;;;;;;;1526468;28;113109;-91
2021/01/17 10:08:35;;;;;;;;;9.80;4.80;;;;;;;;1522914;28;85485;-92
2021/01/17 10:09:43;;;;;;;;;4.00;4.00;;;;;;;;1516829;28;85226;-91
2021/01/17 10:12:12;;;;;;;;;3.40;3.40;;;;;;;;1497995;29;85456;-92
2021/01/17 10:12:58;;;;;;;;;6.20;4.20;;;;;;;;1522250;28;85315;-91
2021/01/17 10:15:34;;;;;;;;;4.25;3.50;;;;;;;;1528652;28;83706;-91
2021/01/17 10:17:52;;;;;;;;;7.40;5.20;;;;;;;;1515612;28;85020;-91
2021/01/17 10:18:38;;;;;;;;;5.00;3.40;;;;;;;;1517160;28;85498;-90
2021/01/17 10:19:27;;;;;;;;;4.25;3.50;;;;;;;;1528578;28;85143;-90
2021/01/17 10:20:42;;;;;;;;;3.20;3.00;;;;;;;;1528630;28;85185;-91
2021/01/17 10:21:27;;;;;;;;;5.40;3.60;;;;;;;;1516578;28;85434;-92
2021/01/17 10:22:16;;;;;;;;;2.00;1.00;;;;;;;;1516567;28;85691;-91
2021/01/17 10:23:08;;;;;;;;;3.50;3.50;;;;;;;;1520127;28;83327;-90
2021/01/17 10:23:54;;;;;;;;;3.60;2.40;;;;;;;;1525892;28;83259;-91
2021/01/17 10:24:42;;;;;;;;;3.33;3.33;;;;;;;;1525018;28;83683;-91
2021/01/17 10:25:30;;;;;;;;;7.40;4.80;;;;;;;;1516370;28;83152;-90
2021/01/17 10:26:23;;;;;;;;;6.60;5.60;;;;;;;;1513329;28;83617;-90
2021/01/17 10:27:12;;;;;;;;;5.75;4.25;;;;;;;;1513743;28;83591;-89
2021/01/17 10:27:58;;;;;;;;;3.50;3.50;;;;;;;;1515161;28;83606;-90
2021/01/17 10:28:43;;;;;;;;;5.25;4.00;;;;;;;;1519058;28;82861;-91
2021/01/17 10:29:30;;;;;;;;;2.33;2.33;;;;;;;;1524252;28;83042;-87
2021/01/17 10:30:17;;;;;;;;;4.00;3.25;;;;;;;;1522412;28;83702;-90
2021/01/17 10:31:03;;;;;;;;;5.25;4.00;;;;;;;;1519824;28;83438;-87
2021/01/17 10:31:53;;;;;;;;;3.33;3.00;;;;;;;;1512607;28;82929;-91
2021/01/17 10:32:42;;;;;;;;;2.75;2.75;;;;;;;;1513695;28;83151;-91
2021/01/17 10:33:30;;;;;;;;;4.25;3.25;;;;;;;;1514325;28;83663;-91
2021/01/17 10:34:35;;;;;;;;;7.50;5.00;;;;;;;;1513442;28;83204;-91
2021/01/17 10:35:21;;;;;;;;;2.00;2.00;;;;;;;;1515299;28;83300;-85
2021/01/17 10:36:10;;;;;;;;;4.00;4.00;;;;;;;;1519100;28;83266;-87
2021/01/17 10:36:56;;;;;;;;;5.00;3.75;;;;;;;;1524562;28;83521;-87
2021/01/17 10:37:42;;;;;;;;;5.25;4.00;;;;;;;;1519305;28;83285;-86
2021/01/17 10:38:27;;;;;;;;;8.33;5.33;;;;;;;;1517153;28;83939;-87
2021/01/17 10:39:16;;;;;;;;;4.00;4.00;;;;;;;;1518005;28;83627;-87
2021/01/17 10:40:02;;;;;;;;;7.75;4.25;;;;;;;;1522018;28;83815;-88
2021/01/17 10:40:47;;;;;;;;;3.67;3.67;;;;;;;;1518650;28;83528;-88
2021/01/17 10:41:34;;;;;;;;;6.00;4.00;;;;;;;;1522282;28;83406;-88
2021/01/17 10:42:22;;;;;;;;;4.25;3.25;;;;;;;;1533690;28;83465;-87
2021/01/17 10:43:09;;;;;;;;;5.50;4.00;;;;;;;;1554617;28;83672;-86
2021/01/17 10:44:01;;;;;;;;;6.75;3.75;;;;;;;;1555255;28;83794;-87
2021/01/17 10:44:51;;;;;;;;;6.25;4.75;;;;;;;;1545431;28;83401;-87
2021/01/17 10:45:38;;;;;;;;;5.00;2.75;;;;;;;;1548882;28;83469;-86
2021/01/17 10:46:24;;;;;;;;;6.00;4.50;;;;;;;;1542246;28;87450;-89
2021/01/17 10:47:13;;;;;;;;;6.25;5.75;;;;;;;;1542637;28;85991;-90
2021/01/17 10:48:08;;;;;;;;;5.25;4.50;;;;;;;;1542027;28;85066;-87
2021/01/17 10:48:53;;;;;;;;;5.00;5.00;;;;;;;;1545726;28;86262;-88
2021/01/17 10:49:40;;;;;;;;;5.00;5.00;;;;;;;;1542570;28;84629;-87
2021/01/17 10:50:26;;;;;;;;;8.25;6.00;;;;;;;;1545015;28;83712;-86
2021/01/17 10:51:14;;;;;;;;;4.75;4.75;;;;;;;;1551097;28;83652;-86
2021/01/17 10:52:07;;;;;;;;;5.50;3.50;;;;;;;;1548724;28;84617;-87
2021/01/17 10:53:04;;;;;;;;;4.50;3.50;;;;;;;;1545964;28;84960;-88
2021/01/17 10:53:50;;;;;;;;;5.50;4.25;;;;;;;;1548616;28;85008;-88
2021/01/17 10:54:40;;;;;;;;;3.67;3.67;;;;;;;;1548659;28;85991;-84
2021/01/17 10:55:30;;;;;;;;;5.25;3.75;;;;;;;;1545268;28;85083;-87
2021/01/17 10:56:16;;;;;;;;;3.75;3.75;;;;;;;;1545588;28;86401;-86
2021/01/17 10:57:01;;;;;;;;;4.67;3.00;;;;;;;;1542483;28;84933;-87
2021/01/17 10:57:50;;;;;;;;;5.33;4.00;;;;;;;;1542185;28;85374;-86
2021/01/17 10:58:40;;;;;;;;;6.50;3.25;;;;;;;;1544992;28;86205;-86
2021/01/17 10:59:27;;;;;;;;;4.50;3.75;;;;;;;;1545434;28;86998;-85
2021/01/17 11:00:12;;;;;;;;;5.75;3.00;;;;;;;;1549647;28;84814;-87
2021/01/17 11:00:58;;;;;;;;;7.00;4.67;;;;;;;;1547311;28;85523;-87
2021/01/17 11:01:45;;;;;;;;;4.00;3.25;;;;;;;;1551983;28;84004;-85
2021/01/17 11:02:30;;;;;;;;;8.25;5.00;;;;;;;;1549442;28;86592;-88
2021/01/17 11:03:26;;;;;;;;;5.33;4.67;;;;;;;;1543753;28;83890;-87
2021/01/17 11:04:13;;;;;;;;;6.25;5.00;;;;;;;;1548765;28;86438;-86
2021/01/17 11:04:58;;;;;;;;;5.50;3.50;;;;;;;;1552113;28;84943;-86
2021/01/17 11:05:43;;;;;;;;;7.67;6.00;;;;;;;;1554602;28;84149;-87
2021/01/17 11:06:29;;;;;;;;;5.67;4.00;;;;;;;;1548497;28;85746;-87
2021/01/17 11:07:17;;;;;;;;;4.00;4.00;;;;;;;;1544026;28;86268;-87
2021/01/17 11:08:03;;;;;;;;;8.50;6.75;;;;;;;;1553187;28;84624;-87
2021/01/17 11:08:50;;;;;;;;;7.67;5.00;;;;;;;;1548496;28;86720;-88
2021/01/17 11:09:35;;;;;;;;;5.00;2.00;;;;;;;;1548707;28;85187;-87
2021/01/17 11:10:21;;;;;;;;;5.67;5.00;;;;;;;;1544084;28;86462;-88
2021/01/17 11:11:06;;;;;;;;;9.67;6.00;;;;;;;;1544521;28;86174;-88
2021/01/17 11:11:51;;;;;;;;;6.33;4.00;;;;;;;;1544219;28;87502;-88
2021/01/17 11:12:37;;;;;;;;;4.00;4.00;;;;;;;;1548336;28;86760;-88
2021/01/17 11:13:23;;;;;;;;;11.00;4.00;;;;;;;;1550632;28;88164;-88
2021/01/17 11:14:08;;;;;;;;;7.33;5.33;;;;;;;;1548300;28;87505;-87
2021/01/17 11:14:53;;;;;;;;;7.33;6.00;;;;;;;;1544077;28;85167;-88
2021/01/17 11:15:39;;;;;;;;;6.50;5.00;;;;;;;;1549960;28;86309;-87
2021/01/17 11:16:43;;;;;;;;;5.67;4.67;;;;;;;;1553184;28;87005;-88
2021/01/17 11:17:28;;;;;;;;;1.50;1.00;;;;;;;;1548171;28;85696;-88
2021/01/17 11:18:19;;;;;;;;;5.00;4.00;;;;;;;;1545859;28;85406;-86
2021/01/17 11:19:05;;;;;;;;;2.50;2.50;;;;;;;;1549276;28;86778;-89
2021/01/17 11:19:51;;;;;;;;;5.50;4.25;;;;;;;;1543304;28;86605;-90
2021/01/17 11:20:37;;;;;;;;;2.75;2.75;;;;;;;;1543334;28;87057;-89
2021/01/17 11:21:23;;;;;;;;;2.33;2.33;;;;;;;;1538792;28;86416;-90
2021/01/17 11:22:11;;;;;;;;;3.25;2.00;;;;;;;;1538636;28;85558;-89
2021/01/17 11:23:04;;;;;;;;;3.00;3.00;;;;;;;;1541723;28;84415;-90
2021/01/17 11:23:52;;;;;;;;;6.00;1.50;;;;;;;;1542867;28;85263;-89
2021/01/17 11:24:41;;;;;;;;;1.25;1.25;;;;;;;;1540452;28;85199;-88
2021/01/17 11:25:26;;;;;;;;;2.25;1.25;;;;;;;;1546009;28;85578;-89
2021/01/17 11:26:11;;;;;;;;;2.67;2.33;;;;;;;;1543646;28;85278;-89
2021/01/17 11:27:09;;;;;;;;;15.25;12.75;;;;;;;;1538802;28;84393;-89
2021/01/17 11:27:58;;;;;;;;;8.00;4.75;;;;;;;;1541201;28;84307;-89
2021/01/17 11:28:49;;;;;;;;;3.75;2.25;;;;;;;;1547714;28;85680;-91
2021/01/17 11:29:34;;;;;;;;;1.50;1.50;;;;;;;;1546843;28;84216;-89
2021/01/17 11:30:24;;;;;;;;;0.67;0.67;;;;;;;;1543805;28;87502;-90
2021/01/17 11:31:13;;;;;;;;;2.25;2.25;;;;;;;;1548804;28;85819;-90
2021/01/17 11:31:58;;;;;;;;;2.00;2.00;;;;;;;;1543544;28;84323;-89
2021/01/17 11:32:43;;;;;;;;;2.00;2.00;;;;;;;;1546527;28;84597;-89
2021/01/17 11:33:29;;;;;;;;;2.33;1.00;;;;;;;;1544429;28;84462;-89
2021/01/17 11:34:15;;;;;;;;;1.00;1.00;;;;;;;;1546473;28;83179;-88
2021/01/17 11:35:00;;;;;;;;;2.25;1.00;;;;;;;;1546152;28;82772;-89
2021/01/17 11:35:46;;;;;;;;;0.33;0.33;;;;;;;;1547220;28;83023;-89
2021/01/17 11:36:31;;;;;;;;;1.00;1.00;;;;;;;;1546371;28;82819;-89
2021/01/17 11:37:16;;;;;;;;;2.67;2.00;;;;;;;;1543093;28;85267;-89
2021/01/17 11:38:02;;;;;;;;;2.33;1.00;;;;;;;;1547047;28;85925;-90
2021/01/17 11:38:50;;;;;;;;;2.33;1.00;;;;;;;;1544338;28;84917;-89
2021/01/17 11:39:35;;;;;;;;;1.00;1.00;;;;;;;;1542228;28;83761;-89
2021/01/17 11:40:21;;;;;;;;;3.67;3.00;;;;;;;;1538534;28;83343;-88
2021/01/17 11:41:06;;;;;;;;;4.00;2.00;;;;;;;;1537825;28;84463;-88
2021/01/17 11:41:53;;;;;;;;;1.00;1.00;;;;;;;;1541883;28;85300;-88
2021/01/17 11:42:38;;;;;;;;;1.75;1.75;;;;;;;;1538309;28;86513;-89
2021/01/17 11:43:23;;;;;;;;;2.00;2.00;;;;;;;;1538300;28;83782;-89
2021/01/17 11:44:16;;;;;;;;;3.00;1.00;;;;;;;;1537884;28;85750;-88
2021/01/17 11:45:13;;;;;;;;;2.00;2.00;;;;;;;;1545119;28;85847;-90
2021/01/17 11:46:03;;;;;;;;;1.00;1.00;;;;;;;;1548648;28;82889;-89
2021/01/17 11:46:49;;;;;;;;;1.00;1.00;;;;;;;;1543193;28;83478;-90
2021/01/17 11:47:35;;;;;;;;;1.00;1.00;;;;;;;;1542089;28;83496;-89
2021/01/17 11:48:30;;;;;;;;;1.75;1.75;;;;;;;;1537815;28;86286;-89
2021/01/17 11:49:20;;;;;;;;;1.00;1.00;;;;;;;;1539740;28;86214;-89
2021/01/17 11:50:15;;;;;;;;;1.50;1.50;;;;;;;;1546704;28;85244;-89
2021/01/17 11:51:01;;;;;;;;;1.00;1.00;;;;;;;;1542312;28;84888;-89
2021/01/17 11:51:46;;;;;;;;;3.67;1.00;;;;;;;;1545932;28;85085;-90
2021/01/17 11:52:32;;;;;;;;;3.00;1.00;;;;;;;;1543311;28;84268;-89
2021/01/17 11:53:17;;;;;;;;;1.33;1.00;;;;;;;;1546864;28;83900;-89
2021/01/17 11:54:10;;;;;;;;;0.00;0.00;;;;;;;;1541887;28;83795;-88
2021/01/17 11:55:04;;;;;;;;;1.50;1.00;;;;;;;;1538558;28;86570;-87
2021/01/17 11:55:49;;;;;;;;;1.00;1.00;;;;;;;;1540317;28;87403;-89
2021/01/17 11:56:35;;;;;;;;;1.00;1.00;;;;;;;;1545364;28;86176;-89
2021/01/17 11:57:26;;;;;;;;;1.00;1.00;;;;;;;;1554309;28;85778;-88
2021/01/17 11:58:12;;;;;;;;;2.00;1.25;;;;;;;;1548271;28;87277;-89
2021/01/17 11:58:57;;;;;;;;;3.00;1.50;;;;;;;;1548120;28;83590;-90
2021/01/17 11:59:43;;;;;;;;;2.00;1.67;;;;;;;;1542575;28;85555;-89
2021/01/17 12:00:28;;;;;;;;;1.33;0.00;;;;;;;;1538156;28;87467;-89
2021/01/17 12:01:24;;;;;;;;;1.00;1.00;;;;;;;;1537998;28;86945;-89
2021/01/17 12:02:23;;;;;;;;;1.00;1.00;;;;;;;;1548292;28;87144;-90
2021/01/17 12:03:08;;;;;;;;;1.00;1.00;;;;;;;;1550968;28;83874;-90
2021/01/17 12:04:00;;;;;;;;;4.33;1.33;;;;;;;;1547919;28;84672;-90
2021/01/17 12:04:46;;;;;;;;;1.25;1.25;;;;;;;;1549326;28;84860;-89
2021/01/17 12:05:31;;;;;;;;;2.50;0.00;;;;;;;;1554010;28;85175;-89
2021/01/17 12:06:16;;;;;;;;;1.33;1.00;;;;;;;;1555868;28;84459;-89
2021/01/17 12:07:05;;;;;;;;;1.00;1.00;;;;;;;;1548917;28;84896;-90
2021/01/17 12:07:57;;;;;;;;;0.75;0.75;;;;;;;;1544360;28;87199;-89
2021/01/17 12:08:49;;;;;;;;;0.50;0.50;;;;;;;;1542087;28;85802;-90
2021/01/17 12:09:34;;;;;;;;;4.00;1.50;;;;;;;;1552777;28;83792;-89
2021/01/17 12:10:21;;;;;;;;;3.00;2.00;;;;;;;;1552064;28;84725;-91
2021/01/17 12:11:06;;;;;;;;;2.25;2.00;;;;;;;;1549316;28;86245;-89
2021/01/17 12:11:52;;;;;;;;;3.33;2.33;;;;;;;;1546464;28;85784;-90
2021/01/17 12:12:38;;;;;;;;;2.67;2.67;;;;;;;;1546217;28;85792;-89
2021/01/17 12:13:23;;;;;;;;;2.75;1.50;;;;;;;;1552263;28;85911;-91
2021/01/17 12:14:10;;;;;;;;;1.00;1.00;;;;;;;;1551074;28;85195;-88
2021/01/17 12:14:58;;;;;;;;;1.00;1.00;;;;;;;;1550748;28;84602;-90
2021/01/17 12:15:43;;;;;;;;;0.50;0.50;;;;;;;;1543120;28;87358;-90
2021/01/17 12:16:31;;;;;;;;;1.67;1.67;;;;;;;;1541300;28;86906;-91
2021/01/17 12:17:16;;;;;;;;;3.75;1.50;;;;;;;;1538666;28;85641;-90
2021/01/17 12:18:01;;;;;;;;;3.00;2.00;;;;;;;;1538558;28;85383;-90
2021/01/17 12:18:47;;;;;;;;;1.00;1.00;;;;;;;;1544214;28;86364;-90
2021/01/17 12:19:34;;;;;;;;;1.33;1.33;;;;;;;;1542241;28;85483;-89
2021/01/17 12:20:19;;;;;;;;;1.00;1.00;;;;;;;;1544178;28;86094;-90
2021/01/17 12:21:05;;;;;;;;;1.00;1.00;;;;;;;;1548522;28;85381;-90
2021/01/17 12:21:53;;;;;;;;;2.00;2.00;;;;;;;;1547884;28;88072;-90
2021/01/17 12:22:39;;;;;;;;;1.00;1.00;;;;;;;;1548351;28;85535;-90
2021/01/17 12:23:24;;;;;;;;;1.33;1.33;;;;;;;;1544614;28;84490;-90
2021/01/17 12:24:10;;;;;;;;;2.00;1.00;;;;;;;;1543976;28;86666;-90
2021/01/17 12:24:56;;;;;;;;;1.00;1.00;;;;;;;;1544176;28;85155;-90
2021/01/17 12:25:41;;;;;;;;;2.67;1.00;;;;;;;;1548184;28;86076;-91
2021/01/17 12:26:27;;;;;;;;;1.00;1.00;;;;;;;;1543696;28;85415;-91
2021/01/17 12:27:12;;;;;;;;;2.33;1.67;;;;;;;;1543999;28;85938;-91
2021/01/17 12:27:57;;;;;;;;;1.67;1.00;;;;;;;;1543773;28;86487;-92
2021/01/17 12:28:43;;;;;;;;;2.33;1.00;;;;;;;;1550572;28;86264;-92
2021/01/17 12:29:28;;;;;;;;;1.00;1.00;;;;;;;;1548339;28;85260;-91
2021/01/17 12:30:15;;;;;;;;;1.67;0.33;;;;;;;;1544496;28;84406;-91
2021/01/17 12:31:00;;;;;;;;;1.00;0.00;;;;;;;;1544356;28;85929;-91
2021/01/17 12:31:46;;;;;;;;;2.00;1.00;;;;;;;;1550422;28;86470;-91
2021/01/17 12:32:31;;;;;;;;;1.00;1.00;;;;;;;;1548060;28;87237;-90
2021/01/17 12:33:17;;;;;;;;;1.00;1.00;;;;;;;;1544408;28;85564;-90
2021/01/17 12:34:02;;;;;;;;;2.00;2.00;;;;;;;;1549881;28;86610;-91
2021/01/17 12:34:48;;;;;;;;;3.25;2.00;;;;;;;;1550353;28;85039;-91
2021/01/17 12:35:33;;;;;;;;;3.33;2.33;;;;;;;;1548347;28;86507;-91
2021/01/17 12:36:21;;;;;;;;;2.33;2.00;;;;;;;;1543798;28;86523;-92
2021/01/17 12:37:06;;;;;;;;;2.75;2.00;;;;;;;;1541977;28;85087;-91
2021/01/17 12:37:51;;;;;;;;;2.33;2.00;;;;;;;;1541138;28;85124;-90
2021/01/17 12:38:36;;;;;;;;;2.00;2.00;;;;;;;;1550234;28;83816;-90
2021/01/17 12:39:22;;;;;;;;;1.00;1.00;;;;;;;;1547971;28;84538;-91
2021/01/17 12:40:07;;;;;;;;;1.00;1.00;;;;;;;;1543903;28;85398;-90
2021/01/17 12:40:53;;;;;;;;;2.00;2.00;;;;;;;;1544042;28;83064;-91
2021/01/17 12:41:40;;;;;;;;;2.33;1.33;;;;;;;;1544077;28;84981;-90
2021/01/17 12:42:25;;;;;;;;;2.00;2.00;;;;;;;;1544297;28;83527;-91
2021/01/17 12:43:11;;;;;;;;;0.33;0.33;;;;;;;;1544463;28;84058;-91
2021/01/17 12:43:56;;;;;;;;;3.67;2.33;;;;;;;;1544092;28;85518;-92
2021/01/17 12:44:42;;;;;;;;;3.00;3.00;;;;;;;;1543880;28;85989;-91
2021/01/17 12:45:27;;;;;;;;;5.00;2.00;;;;;;;;1544221;28;83448;-91
2021/01/17 12:46:13;;;;;;;;;2.00;2.00;;;;;;;;1544213;28;83630;-91
2021/01/17 12:46:58;;;;;;;;;1.75;1.00;;;;;;;;1543486;28;84135;-90
2021/01/17 12:47:43;;;;;;;;;2.00;2.00;;;;;;;;1544006;28;85133;-90
2021/01/17 12:48:29;;;;;;;;;2.33;1.00;;;;;;;;1543765;28;85757;-90
2021/01/17 12:49:15;;;;;;;;;1.67;1.67;;;;;;;;1544031;28;83075;-91
2021/01/17 12:50:00;;;;;;;;;3.00;2.00;;;;;;;;1544126;28;83678;-91
2021/01/17 12:50:45;;;;;;;;;2.33;2.33;;;;;;;;1544122;28;83784;-90
2021/01/17 12:51:31;;;;;;;;;1.33;1.00;;;;;;;;1549956;28;84116;-90
2021/01/17 12:52:16;;;;;;;;;1.33;1.33;;;;;;;;1547950;28;83539;-90
2021/01/17 12:53:01;;;;;;;;;1.67;1.00;;;;;;;;1543946;28;83734;-90
2021/01/17 12:53:47;;;;;;;;;1.00;1.00;;;;;;;;1543760;28;84797;-91
2021/01/17 12:54:32;;;;;;;;;0.50;0.50;;;;;;;;1544155;28;83847;-90
2021/01/17 12:55:18;;;;;;;;;2.00;2.00;;;;;;;;1543822;28;83704;-89
2021/01/17 12:56:03;;;;;;;;;4.00;1.67;;;;;;;;1543792;28;85828;-90
2021/01/17 12:56:49;;;;;;;;;2.00;2.00;;;;;;;;1550279;28;83552;-88
2021/01/17 12:57:37;;;;;;;;;1.00;1.00;;;;;;;;1548035;28;83873;-89
2021/01/17 12:58:23;;;;;;;;;2.00;1.00;;;;;;;;1544304;28;83563;-91
2021/01/17 12:59:08;;;;;;;;;2.25;1.25;;;;;;;;1544133;28;85586;-90
2021/01/17 12:59:53;;;;;;;;;0.33;0.33;;;;;;;;1546730;28;84074;-90
2021/01/17 13:00:39;;;;;;;;;1.00;1.00;;;;;;;;1543605;28;84850;-89
2021/01/17 13:01:24;;;;;;;;;2.00;2.00;;;;;;;;1543753;28;84741;-90
2021/01/17 13:02:09;;;;;;;;;1.67;1.67;;;;;;;;1549878;28;83671;-90
2021/01/17 13:02:54;;;;;;;;;1.67;1.67;;;;;;;;1554233;28;83552;-90
2021/01/17 13:03:40;;;;;;;;;3.33;2.33;;;;;;;;1548326;28;86325;-89
2021/01/17 13:04:25;;;;;;;;;1.00;0.00;;;;;;;;1547908;28;85887;-91
2021/01/17 13:05:10;;;;;;;;;3.00;1.00;;;;;;;;1543944;28;85688;-90
2021/01/17 13:05:56;;;;;;;;;1.00;1.00;;;;;;;;1543528;28;84594;-91
2021/01/17 13:06:41;;;;;;;;;2.67;2.00;;;;;;;;1549767;28;87818;-91
2021/01/17 13:07:26;;;;;;;;;1.00;1.00;;;;;;;;1547920;28;86841;-91
2021/01/17 13:08:12;;;;;;;;;3.67;0.67;;;;;;;;1543779;28;85457;-90
2021/01/17 13:08:57;;;;;;;;;2.67;2.00;;;;;;;;1543888;28;86185;-90
2021/01/17 13:09:42;;;;;;;;;1.33;1.33;;;;;;;;1543833;28;85959;-91
2021/01/17 13:10:27;;;;;;;;;2.00;0.67;;;;;;;;1544050;28;83537;-90
2021/01/17 13:11:14;;;;;;;;;1.67;1.67;;;;;;;;1544284;28;83910;-89
2021/01/17 13:12:03;;;;;;;;;0.00;0.00;;;;;;;;1544188;28;85167;-90
2021/01/17 13:12:48;;;;;;;;;1.00;1.00;;;;;;;;1544692;28;84967;-91
2021/01/17 13:13:34;;;;;;;;;1.00;0.33;;;;;;;;1544462;28;85531;-90
2021/01/17 13:14:19;;;;;;;;;3.00;2.00;;;;;;;;1544168;28;84369;-90
2021/01/17 13:15:05;;;;;;;;;3.67;0.00;;;;;;;;1544293;28;84772;-90
2021/01/17 13:16:00;;;;;;;;;3.33;1.00;;;;;;;;1543558;28;85984;-90
2021/01/17 13:16:45;;;;;;;;;0.75;0.75;;;;;;;;1545471;28;83962;-90
2021/01/17 13:17:31;;;;;;;;;1.00;1.00;;;;;;;;1545839;28;85878;-89
2021/01/17 13:18:17;;;;;;;;;1.00;1.00;;;;;;;;1544647;28;86207;-91
2021/01/17 13:19:02;;;;;;;;;1.00;1.00;;;;;;;;1544194;28;84966;-89
2021/01/17 13:19:47;;;;;;;;;1.67;1.67;;;;;;;;1544104;28;84804;-90
2021/01/17 13:20:33;;;;;;;;;3.00;1.00;;;;;;;;1544669;28;87242;-90
2021/01/17 13:21:18;;;;;;;;;1.00;1.00;;;;;;;;1547556;28;83596;-90
2021/01/17 13:22:03;;;;;;;;;2.67;1.33;;;;;;;;1550791;28;85351;-90
2021/01/17 13:22:49;;;;;;;;;1.00;1.00;;;;;;;;1548911;28;83957;-90
2021/01/17 13:23:34;;;;;;;;;1.33;1.33;;;;;;;;1544699;28;87332;-89
2021/01/17 13:24:19;;;;;;;;;2.33;1.00;;;;;;;;1544226;28;87185;-90
2021/01/17 13:25:05;;;;;;;;;1.00;1.00;;;;;;;;1544299;28;85269;-89
2021/01/17 13:25:50;;;;;;;;;1.33;1.33;;;;;;;;1544259;28;85426;-89
2021/01/17 13:26:35;;;;;;;;;3.67;1.67;;;;;;;;1544190;28;86535;-88
2021/01/17 13:27:21;;;;;;;;;3.00;1.00;;;;;;;;1550341;28;86321;-89
2021/01/17 13:28:06;;;;;;;;;1.00;1.00;;;;;;;;1548103;28;85258;-90
2021/01/17 13:28:52;;;;;;;;;1.00;1.00;;;;;;;;1544145;28;85629;-90
2021/01/17 13:29:37;;;;;;;;;2.67;1.67;;;;;;;;1543996;28;86541;-90
2021/01/17 13:30:22;;;;;;;;;5.00;1.00;;;;;;;;1544286;28;85771;-89
2021/01/17 13:31:08;;;;;;;;;1.33;1.33;;;;;;;;1543536;28;85520;-89
2021/01/17 13:31:53;;;;;;;;;2.00;1.00;;;;;;;;1543792;28;85562;-89
2021/01/17 13:32:38;;;;;;;;;1.67;0.00;;;;;;;;1542410;28;85260;-89
2021/01/17 13:33:24;;;;;;;;;2.67;2.00;;;;;;;;1544332;28;85145;-88
2021/01/17 13:34:09;;;;;;;;;2.67;1.00;;;;;;;;1542160;28;86593;-90
2021/01/17 13:34:54;;;;;;;;;3.67;2.00;;;;;;;;1538162;28;85533;-90
2021/01/17 13:35:41;;;;;;;;;1.00;1.00;;;;;;;;1537798;28;87776;-90
2021/01/17 13:36:27;;;;;;;;;1.00;1.00;;;;;;;;1538277;28;85380;-90
2021/01/17 13:37:15;;;;;;;;;3.00;3.00;;;;;;;;1538177;28;85228;-90
2021/01/17 13:38:00;;;;;;;;;1.00;1.00;;;;;;;;1538841;28;86158;-90
2021/01/17 13:38:46;;;;;;;;;0.67;0.67;;;;;;;;1542544;28;85802;-89
2021/01/17 13:39:31;;;;;;;;;1.00;1.00;;;;;;;;1541978;28;86657;-89
2021/01/17 13:40:16;;;;;;;;;1.67;0.33;;;;;;;;1542242;28;85280;-90
2021/01/17 13:41:03;;;;;;;;;3.33;1.00;;;;;;;;1543910;28;85304;-90
2021/01/17 13:41:51;;;;;;;;;1.00;1.00;;;;;;;;1542354;28;84737;-91
2021/01/17 13:42:37;;;;;;;;;1.75;1.75;;;;;;;;1544729;28;85140;-90
2021/01/17 13:43:22;;;;;;;;;2.00;1.67;;;;;;;;1547075;28;82990;-89
2021/01/17 13:44:07;;;;;;;;;1.00;0.67;;;;;;;;1548313;28;84861;-90
2021/01/17 13:44:53;;;;;;;;;2.67;2.67;;;;;;;;1542290;28;85868;-89
2021/01/17 13:45:38;;;;;;;;;1.00;1.00;;;;;;;;1538261;28;84810;-89
2021/01/17 13:46:24;;;;;;;;;3.00;2.00;;;;;;;;1538556;28;82874;-89
2021/01/17 13:47:09;;;;;;;;;1.00;0.00;;;;;;;;1544963;28;84473;-90
2021/01/17 13:47:54;;;;;;;;;1.00;1.00;;;;;;;;1542853;28;84915;-89
2021/01/17 13:48:40;;;;;;;;;2.00;2.00;;;;;;;;1540342;28;83398;-89
2021/01/17 13:49:26;;;;;;;;;1.00;0.00;;;;;;;;1539729;28;84387;-89
2021/01/17 13:50:14;;;;;;;;;0.00;0.00;;;;;;;;1545189;28;84666;-89
2021/01/17 13:50:59;;;;;;;;;2.00;1.50;;;;;;;;1547970;28;84047;-90
2021/01/17 13:51:44;;;;;;;;;2.00;1.33;;;;;;;;1544841;28;86112;-89
2021/01/17 13:52:30;;;;;;;;;1.00;1.00;;;;;;;;1545027;28;83545;-89
2021/01/17 13:53:15;;;;;;;;;2.67;1.00;;;;;;;;1545548;28;83810;-90
2021/01/17 13:54:00;;;;;;;;;1.33;1.00;;;;;;;;1544786;28;83424;-89
2021/01/17 13:54:46;;;;;;;;;2.33;2.33;;;;;;;;1549591;28;85889;-90
2021/01/17 13:55:31;;;;;;;;;1.33;1.00;;;;;;;;1545632;28;83692;-89
2021/01/17 13:56:16;;;;;;;;;2.00;2.00;;;;;;;;1545607;28;84946;-89
2021/01/17 13:57:01;;;;;;;;;2.33;1.00;;;;;;;;1545368;28;85219;-89
2021/01/17 13:57:47;;;;;;;;;3.33;2.33;;;;;;;;1545372;28;85160;-90
2021/01/17 13:58:32;;;;;;;;;3.00;1.67;;;;;;;;1544280;28;85518;-89
2021/01/17 13:59:17;;;;;;;;;2.33;0.00;;;;;;;;1544415;28;84914;-91
2021/01/17 14:00:04;;;;;;;;;1.33;1.33;;;;;;;;1545391;28;84820;-90
2021/01/17 14:00:49;;;;;;;;;3.00;1.00;;;;;;;;1544790;28;83156;-90
2021/01/17 14:01:37;;;;;;;;;0.00;0.00;;;;;;;;1544451;28;84381;-90
2021/01/17 14:02:23;;;;;;;;;0.50;0.50;;;;;;;;1548302;28;83541;-90
2021/01/17 14:03:08;;;;;;;;;1.67;0.00;;;;;;;;1544537;28;84870;-90
2021/01/17 14:03:53;;;;;;;;;1.33;1.33;;;;;;;;1544974;28;83532;-90
2021/01/17 14:04:39;;;;;;;;;2.33;2.33;;;;;;;;1546958;28;84060;-90
2021/01/17 14:05:24;;;;;;;;;1.25;1.25;;;;;;;;1544057;28;84818;-90
2021/01/17 14:06:10;;;;;;;;;1.00;1.00;;;;;;;;1542204;28;83771;-90
2021/01/17 14:06:56;;;;;;;;;2.00;1.00;;;;;;;;1538509;28;86250;-90
2021/01/17 14:07:46;;;;;;;;;1.00;1.00;;;;;;;;1539076;28;85195;-89
2021/01/17 14:08:31;;;;;;;;;2.50;2.00;;;;;;;;1542078;28;85702;-90
2021/01/17 14:09:16;;;;;;;;;1.67;1.67;;;;;;;;1544677;28;86217;-90
2021/01/17 14:10:03;;;;;;;;;1.33;1.33;;;;;;;;1547927;28;83676;-89
2021/01/17 14:10:48;;;;;;;;;1.75;1.50;;;;;;;;1545299;28;85104;-89
2021/01/17 14:11:33;;;;;;;;;2.33;2.00;;;;;;;;1547551;28;83638;-90
2021/01/17 14:12:19;;;;;;;;;1.67;1.67;;;;;;;;1544587;28;85714;-89
2021/01/17 14:13:04;;;;;;;;;2.00;1.67;;;;;;;;1541112;28;85123;-89
2021/01/17 14:13:49;;;;;;;;;3.00;1.33;;;;;;;;1547037;28;86168;-89
2021/01/17 14:14:35;;;;;;;;;1.33;1.33;;;;;;;;1545572;28;84772;-89
2021/01/17 14:15:24;;;;;;;;;2.75;1.00;;;;;;;;1546399;28;85250;-88
2021/01/17 14:16:09;;;;;;;;;1.00;1.00;;;;;;;;1548090;28;84045;-90
2021/01/17 14:16:55;;;;;;;;;4.00;2.33;;;;;;;;1547666;28;86208;-89
2021/01/17 14:17:40;;;;;;;;;3.00;1.67;;;;;;;;1553593;28;85642;-89
2021/01/17 14:18:25;;;;;;;;;1.00;1.00;;;;;;;;1554347;28;84757;-89
2021/01/17 14:19:11;;;;;;;;;1.00;1.00;;;;;;;;1549556;28;85598;-89
2021/01/17 14:19:56;;;;;;;;;1.67;1.00;;;;;;;;1548199;28;84784;-90
2021/01/17 14:20:41;;;;;;;;;1.00;0.00;;;;;;;;1544815;28;84766;-90
2021/01/17 14:21:26;;;;;;;;;0.00;0.00;;;;;;;;1543075;28;83450;-90
2021/01/17 14:22:12;;;;;;;;;0.00;0.00;;;;;;;;1538793;28;86057;-89